Murzuq, Libya
Current Conditions -  °F | °C
As of 6:00 PM on Thursday 23 Oct 2014 (Local Time) from DAUZ Reporting Station
Clear Clear  
Wind Chill: 86°   Ceiling: Unl
Heat Index: 86°   Visibility: 6mi
Dew Point: 30°   Wind: 14mph
Humidity: 13%   Direction: 270°W
Pressure: 29.94"   Gusts: NA
Location:  25.97°N, 14.05°E
Report Text: DAUZ 231500Z 27012KT CAVOK 30/M01 Q1014
Loading
Personal Weather Stations






























Interactive Weather Map
Tropical Storm Tracking
New forecast layout! Learn more

10-Day Weather Forecast

Advertisements
Track Severe Weather on mobile